Data for 02/17/2008

Time Sea-Level Adjusted Pressure Absolute Pressure Temperature Relative Humidity Dew Point   
(mb) (inHg) (mb) (inHg) (C) (F) (%) (C) (F)
00:05 1018 30.06 848 25.04 -1.7 29 76 -5.4 22.3
00:10 1019 30.09 848 25.04 -2.1 28.2 77 -5.7 21.8
00:15 1019 30.09 848 25.04 -2.5 27.5 78 -5.9 21.4
00:20 1019 30.09 848 25.04 -2.7 27.2 76 -6.3 20.7
00:25 1019 30.09 848 25.04 -2.8 27 75 -6.6 20
00:30 1019 30.09 848 25.04 -2.9 26.9 74 -6.9 19.6
00:35 1019 30.09 848 25.04 -2.9 26.8 74 -6.9 19.5
00:40 1019 30.09 848 25.04 -3 26.7 76 -6.7 20
00:45 1019 30.09 848 25.04 -3.1 26.5 76 -6.7 20
00:50 1019 30.09 848 25.04 -3.3 26 79 -6.5 20.3
00:55 1019 30.09 848 25.04 -3.6 25.5 80 -6.6 20.2
01:00 1019 30.09 848 25.04 -3.6 25.4 82 -6.3 20.7
01:05 1019 30.09 849 25.07 -3.7 25.3 83 -6.2 20.8
01:10 1020 30.12 849 25.07 -3.8 25.2 84 -6.1 21
01:15 1020 30.12 849 25.07 -3.8 25.1 83 -6.4 20.5
01:20 1020 30.12 849 25.07 -3.9 25.1 80 -6.8 19.8
01:25 1020 30.12 849 25.07 -3.8 25.2 79 -6.9 19.6
01:30 1020 30.12 849 25.07 -3.7 25.3 79 -6.8 19.8
01:35 1020 30.12 849 25.07 -3.7 25.4 82 -6.3 20.7
01:40 1020 30.12 849 25.07 -3.8 25.1 82 -6.4 20.4
01:45 1020 30.12 849 25.07 -3.9 25 82 -6.6 20.2
01:50 1020 30.12 849 25.07 -4 24.8 82 -6.7 20
01:55 1020 30.12 849 25.07 -4.2 24.5 81 -6.9 19.5
02:00 1020 30.12 849 25.07 -4.3 24.3 81 -7.1 19.3
02:05 1020 30.12 849 25.07 -4.3 24.3 78 -7.6 18.4
02:10 1020 30.12 849 25.07 -4.3 24.2 79 -7.4 18.7
02:15 1020 30.12 849 25.07 -4.4 24.1 80 -7.4 18.7
02:20 1020 30.12 849 25.07 -4.6 23.8 79 -7.6 18.3
02:25 1020 30.12 849 25.07 -4.8 23.4 80 -7.8 18
02:30 1020 30.12 849 25.07 -5 23.1 80 -7.8 17.9
02:35 1020 30.12 849 25.07 -5.1 22.8 81 -7.8 17.9
02:40 1020 30.12 849 25.07 -5.2 22.7 81 -7.9 17.8
02:45 1020 30.12 849 25.07 -5.2 22.6 81 -8 17.6
02:50 1020 30.12 849 25.07 -5.1 22.8 80 -8.1 17.5
02:55 1020 30.12 849 25.07 -5.1 22.9 79 -8.2 17.2
03:00 1020 30.12 849 25.07 -4.9 23.1 78 -8.1 17.3
03:05 1020 30.12 849 25.07 -4.9 23.2 78 -8.2 17.3
03:10 1020 30.12 849 25.07 -5.1 22.9 79 -8.2 17.2
03:15 1020 30.12 850 25.1 -5.1 22.8 78 -8.3 17
03:20 1020 30.12 850 25.1 -5 23 77 -8.4 16.8
03:25 1020 30.12 850 25.1 -5.1 22.9 77 -8.5 16.8
03:30 1020 30.12 850 25.1 -5.2 22.7 78 -8.5 16.8
03:35 1021 30.15 850 25.1 -5.1 22.7 78 -8.5 16.8
03:40 1021 30.15 850 25.1 -5.2 22.7 78 -8.5 16.7
03:45 1021 30.15 850 25.1 -5.3 22.5 79 -8.4 16.9
03:50 1021 30.15 850 25.1 -5.3 22.5 78 -8.5 16.7
03:55 1021 30.15 850 25.1 -5.3 22.4 78 -8.6 16.5
04:00 1021 30.15 850 25.1 -5.3 22.5 77 -8.6 16.5
04:05 1021 30.15 850 25.1 -5.2 22.6 77 -8.6 16.4
04:10 1021 30.15 850 25.1 -5.2 22.7 77 -8.7 16.3
04:15 1021 30.15 850 25.1 -5.2 22.6 77 -8.7 16.4
04:20 1021 30.15 850 25.1 -5.2 22.6 76 -8.8 16.2
04:25 1021 30.15 850 25.1 -5.2 22.6 76 -8.8 16.2
04:30 1021 30.15 850 25.1 -5.3 22.5 77 -8.7 16.3
04:35 1021 30.15 850 25.1 -5.4 22.3 77 -8.8 16.1
04:40 1021 30.15 850 25.1 -5.4 22.2 77 -8.9 16
04:45 1021 30.15 850 25.1 -5.4 22.2 77 -8.9 16
04:50 1021 30.15 850 25.1 -5.5 22.2 77 -8.8 16.1
04:55 1021 30.15 850 25.1 -5.5 22.1 76 -9.1 15.7
05:00 1021 30.15 850 25.1 -5.5 22.1 78 -8.7 16.3
05:05 1021 30.15 851 25.13 -5.5 22 78 -8.8 16.1
05:10 1021 30.15 851 25.13 -5.5 22.1 78 -8.7 16.3
05:15 1021 30.15 851 25.13 -5.5 22.1 77 -8.8 16.1
05:20 1021 30.15 851 25.13 -5.5 22 77 -8.9 15.9
05:25 1021 30.15 851 25.13 -5.6 22 78 -8.8 16.1
05:30 1021 30.15 851 25.13 -5.5 22.1 78 -8.7 16.3
05:35 1022 30.18 851 25.13 -5.5 22.1 78 -8.7 16.4
05:40 1022 30.18 851 25.13 -5.5 22.1 79 -8.6 16.6
05:45 1022 30.18 851 25.13 -5.5 22.1 79 -8.5 16.6
05:50 1022 30.18 851 25.13 -5.5 22.1 80 -8.5 16.7
05:55 1022 30.18 851 25.13 -5.5 22.1 80 -8.4 16.9
06:00 1022 30.18 851 25.13 -5.8 21.6 82 -8.4 16.9
06:05 1022 30.18 851 25.13 -5.9 21.4 81 -8.7 16.3
06:10 1022 30.18 851 25.13 -5.8 21.6 78 -8.9 15.9
06:15 1022 30.18 851 25.13 -5.7 21.8 75 -9.4 15
06:20 1022 30.18 851 25.13 -5.6 21.9 74 -9.5 14.8
06:25 1022 30.18 851 25.13 -5.6 22 75 -9.4 15.1
06:30 1022 30.18 851 25.13 -5.7 21.8 79 -8.8 16.2
06:35 1022 30.18 851 25.13 -5.8 21.6 81 -8.5 16.7
06:40 1022 30.18 851 25.13 -5.9 21.5 82 -8.5 16.7
06:45 1022 30.18 851 25.13 -5.9 21.4 82 -8.5 16.6
06:50 1022 30.18 851 25.13 -5.9 21.4 81 -8.6 16.5
06:55 1022 30.18 851 25.13 -5.9 21.4 81 -8.6 16.5
07:00 1022 30.18 851 25.13 -5.8 21.6 80 -8.6 16.5
07:05 1022 30.18 851 25.13 -5.8 21.5 80 -8.7 16.3
07:10 1022 30.18 851 25.13 -6 21.3 80 -8.9 16
07:15 1022 30.18 851 25.13 -6 21.1 81 -8.8 16.1
07:20 1022 30.18 851 25.13 -6 21.2 80 -8.9 16
07:25 1022 30.18 851 25.13 -6 21.2 81 -8.8 16.2
07:30 1022 30.18 851 25.13 -6 21.2 81 -8.7 16.3
07:35 1022 30.18 851 25.13 -6 21.2 82 -8.6 16.5
07:40 1022 30.18 851 25.13 -6 21.2 83 -8.5 16.7
07:45 1022 30.18 851 25.13 -6.1 21.1 83 -8.5 16.8
07:50 1022 30.18 851 25.13 -6.1 21.1 83 -8.5 16.7
07:55 1022 30.18 851 25.13 -6 21.1 84 -8.4 16.9
08:00 1022 30.18 851 25.13 -6 21.1 84 -8.4 17
08:05 1022 30.18 851 25.13 -6.1 21.1 84 -8.3 17.1
08:10 1022 30.18 851 25.13 -6.1 21.1 84 -8.4 17
08:15 1022 30.18 851 25.13 -5.9 21.3 82 -8.5 16.7
08:20 1022 30.18 851 25.13 -5.8 21.6 82 -8.3 17
08:25 1022 30.18 851 25.13 -5.7 21.8 80 -8.5 16.7
08:30 1022 30.18 851 25.13 -5.7 21.8 80 -8.6 16.6
08:35 1022 30.18 851 25.13 -5.6 21.9 79 -8.7 16.3
08:40 1022 30.18 851 25.13 -5.6 21.9 80 -8.6 16.5
08:45 1022 30.18 851 25.13 -5.6 21.9 80 -8.5 16.7
08:50 1022 30.18 851 25.13 -5.6 21.9 79 -8.7 16.4
08:55 1022 30.18 852 25.16 -5.5 22.1 79 -8.6 16.5
09:00 1022 30.18 852 25.16 -5.5 22.1 79 -8.6 16.4
09:05 1022 30.18 852 25.16 -5.5 22.2 78 -8.7 16.4
09:10 1023 30.21 852 25.16 -5.4 22.3 79 -8.5 16.7
09:15 1023 30.21 852 25.16 -5.3 22.4 78 -8.6 16.5
09:20 1023 30.21 852 25.16 -5.5 22.1 78 -8.7 16.4
09:25 1023 30.21 852 25.16 -5.5 22.1 78 -8.8 16.1
09:30 1023 30.21 852 25.16 -5.3 22.5 75 -9 15.8
09:35 1023 30.21 852 25.16 -5.2 22.7 76 -8.8 16.2
09:40 1023 30.21 852 25.16 -5.4 22.4 75 -9 15.7
09:45 1023 30.21 852 25.16 -5.3 22.4 75 -9.1 15.6
09:50 1023 30.21 852 25.16 -5.2 22.6 74 -9.1 15.6
09:55 1023 30.21 852 25.16 -4.9 23.2 73 -9 15.7
10:00 1023 30.21 852 25.16 -4.7 23.5 71 -9.2 15.4
10:05 1023 30.21 852 25.16 -4.7 23.6 70 -9.3 15.3
10:10 1023 30.21 852 25.16 -4.6 23.8 72 -8.9 16.1
10:15 1023 30.21 852 25.16 -4.5 23.9 69 -9.3 15.3
10:20 1023 30.21 852 25.16 -4.3 24.2 68 -9.5 15
10:25 1023 30.21 852 25.16 -3.5 25.8 64 -9.3 15.2
10:30 1023 30.21 852 25.16 -3.3 26.1 63 -9.4 15.1
10:35 1023 30.21 852 25.16 -3.7 25.3 65 -9.3 15.3
10:40 1022 30.18 852 25.16 -3.4 25.9 63 -9.4 15.1
10:45 1022 30.18 852 25.16 -3.4 25.9 63 -9.5 14.9
10:50 1022 30.18 852 25.16 -3.2 26.2 61 -9.7 14.5
10:55 1022 30.18 852 25.16 -2.7 27.1 58 -9.8 14.4
11:00 1022 30.18 852 25.16 -2.9 26.7 61 -9.4 15.2
11:05 1022 30.18 852 25.16 -2.7 27.1 55 -10.6 13
11:10 1022 30.18 852 25.16 -2.8 27 57 -10.2 13.6
11:15 1022 30.18 852 25.16 -3.1 26.4 57 -10.6 13
11:20 1022 30.18 852 25.16 -3.1 26.4 56 -10.7 12.8
11:25 1022 30.18 852 25.16 -3.5 25.7 56 -11.1 12.1
11:30 1022 30.18 852 25.16 -3.2 26.2 54 -11.3 11.7
11:35 1022 30.18 851 25.13 -2.2 28 51 -11 12.2
11:40 1022 30.18 851 25.13 -2.4 27.7 51 -11.1 12
11:45 1022 30.18 851 25.13 -2.3 27.9 51 -11 12.1
11:50 1022 30.18 851 25.13 -1.3 29.7 51 -10.3 13.5
11:55 1022 30.18 851 25.13 -1.9 28.6 49 -11.1 11.9
12:00 1022 30.18 851 25.13 -1.3 29.7 47 -11.3 11.7
12:05 1022 30.18 851 25.13 -2 28.4 53 -10.5 13.2
12:10 1022 30.18 851 25.13 -2.6 27.3 53 -11 12.2
12:15 1022 30.18 851 25.13 -2.2 28.1 52 -10.8 12.5
12:20 1022 30.18 851 25.13 -1.9 28.7 50 -11.1 12.1
12:25 1022 30.18 851 25.13 -1.6 29.1 49 -10.9 12.4
12:30 1022 30.18 851 25.13 -2 28.4 49 -11.3 11.6
12:35 1021 30.15 851 25.13 -2.4 27.8 53 -10.6 12.9
12:40 1021 30.15 851 25.13 -1.7 29 48 -11.3 11.6
12:45 1021 30.15 850 25.1 -1.6 29.1 50 -10.9 12.4
12:50 1021 30.15 850 25.1 -2.5 27.4 50 -11.7 11
12:55 1021 30.15 850 25.1 -1.8 28.7 48 -11.5 11.3
13:00 1021 30.15 850 25.1 -0.9 30.3 45 -11.4 11.5
13:05 1021 30.15 850 25.1 -0.4 31.3 43 -11.5 11.4
13:10 1021 30.15 850 25.1 -0.7 30.7 47 -10.6 12.9
13:15 1021 30.15 850 25.1 -0.4 31.3 44 -11.3 11.7
13:20 1021 30.15 850 25.1 -0.7 30.7 44 -11.4 11.4
13:25 1021 30.15 850 25.1 -0.4 31.2 43 -11.5 11.3
13:30 1021 30.15 850 25.1 -0.1 31.8 42 -11.6 11.2
13:35 1021 30.15 850 25.1 0.2 32.3 42 -11.3 11.7
13:40 1021 30.15 850 25.1 0.6 33.1 39 -11.7 11
13:45 1020 30.12 850 25.1 0.1 32.2 39 -12.2 10.1
13:50 1020 30.12 850 25.1 -0.1 31.9 38 -12.8 8.9
13:55 1020 30.12 849 25.07 -0.2 31.7 40 -12.3 9.9
14:00 1020 30.12 849 25.07 -0.2 31.7 42 -11.7 11
14:05 1020 30.12 849 25.07 0.6 33 38 -12.2 10.1
14:10 1020 30.12 849 25.07 0.5 33 38 -12.2 10
14:15 1020 30.12 849 25.07 1 33.7 36 -12.5 9.4
14:20 1020 30.12 849 25.07 1.1 34 35 -12.9 8.8
14:25 1020 30.12 849 25.07 1.6 34.9 34 -12.5 9.5
14:30 1020 30.12 849 25.07 1.7 35.1 35 -12.4 9.8
14:35 1020 30.12 849 25.07 1.5 34.8 35 -12.5 9.5
14:40 1020 30.12 849 25.07 1.5 34.7 35 -12.5 9.4
14:45 1020 30.12 849 25.07 1.4 34.6 39 -11.2 11.8
14:50 1020 30.12 849 25.07 2 35.5 37 -11.1 12
14:55 1020 30.12 849 25.07 1.7 35.1 38 -11.1 12.1
15:00 1020 30.12 849 25.07 2.5 36.4 35 -11.4 11.5
15:05 1020 30.12 849 25.07 2.8 37 34 -11.6 11.1
15:10 1020 30.12 849 25.07 1.1 34.1 40 -11.1 11.9
15:15 1020 30.12 849 25.07 0.3 32.5 42 -11.1 11.9
15:20 1020 30.12 849 25.07 0.5 33 40 -11.6 11.1
15:25 1020 30.12 849 25.07 0.6 33 40 -11.4 11.4
15:30 1020 30.12 849 25.07 1.4 34.6 35 -12.3 9.9
15:35 1020 30.12 849 25.07 1.4 34.5 38 -11.3 11.6
15:40 1020 30.12 849 25.07 1.1 34 38 -11.9 10.7
15:45 1020 30.12 849 25.07 1.2 34.2 38 -11.5 11.3
15:50 1020 30.12 849 25.07 1.2 34.2 38 -11.5 11.2
15:55 1019 30.09 849 25.07 0.6 33.1 39 -11.8 10.8
16:00 1019 30.09 849 25.07 0.4 32.6 41 -11.5 11.3
16:05 1019 30.09 849 25.07 0.5 32.9 37 -12.5 9.5
16:10 1019 30.09 849 25.07 0.8 33.4 38 -12.1 10.2
16:15 1019 30.09 848 25.04 0.9 33.6 36 -12.5 9.5
16:20 1019 30.09 848 25.04 0.9 33.6 37 -12.2 10.1
16:25 1019 30.09 848 25.04 1 33.8 36 -12.4 9.7
16:30 1019 30.09 848 25.04 1 33.8 37 -12.1 10.3
16:35 1019 30.09 848 25.04 0.8 33.4 38 -12 10.4
16:40 1019 30.09 848 25.04 0.2 32.3 39 -12.2 10.1
16:45 1019 30.09 848 25.04 0.1 32.2 40 -12.1 10.2
16:50 1019 30.09 848 25.04 0.3 32.5 40 -11.8 10.7
16:55 1019 30.09 848 25.04 0.4 32.7 40 -11.7 10.9
17:00 1019 30.09 848 25.04 0.8 33.4 38 -12 10.5
17:05 1019 30.09 848 25.04 1.2 34.2 36 -12.2 10
17:10 1019 30.09 848 25.04 1.3 34.4 36 -12.3 9.9
17:15 1019 30.09 848 25.04 0.8 33.5 40 -11.4 11.4
17:20 1019 30.09 848 25.04 0.4 32.6 40 -11.6 11.1
17:25 1019 30.09 848 25.04 -0.2 31.7 41 -12.1 10.3
17:30 1019 30.09 848 25.04 -0.1 31.8 41 -11.9 10.7
17:35 1019 30.09 848 25.04 -0 31.9 41 -11.9 10.5
17:40 1019 30.09 848 25.04 0.1 32.2 40 -12.1 10.2
17:45 1019 30.09 848 25.04 0 32.1 42 -11.4 11.5
17:50 1019 30.09 848 25.04 -0.2 31.6 43 -11.4 11.5
17:55 1019 30.09 848 25.04 -0.3 31.4 43 -11.4 11.5
18:00 1019 30.09 848 25.04 -0.4 31.3 42 -11.7 11
18:05 1019 30.09 848 25.04 -0.7 30.7 44 -11.6 11.1
18:10 1019 30.09 848 25.04 -0.9 30.4 43 -12.1 10.3
18:15 1019 30.09 848 25.04 -1.1 30.1 45 -11.4 11.4
18:20 1019 30.09 848 25.04 -1.2 29.8 45 -11.6 11.1
18:25 1019 30.09 848 25.04 -1.4 29.4 46 -11.6 11.1
18:30 1019 30.09 848 25.04 -1.3 29.7 46 -11.5 11.3
18:35 1019 30.09 848 25.04 -1.2 29.8 46 -11.3 11.6
18:40 1019 30.09 848 25.04 -1.1 30 46 -11.3 11.7
18:45 1019 30.09 849 25.07 -1 30.1 47 -11.1 12
18:50 1019 30.09 849 25.07 -1 30.2 47 -11 12.2
18:55 1020 30.12 849 25.07 -0.8 30.5 46 -11 12.3
19:00 1020 30.12 849 25.07 -0.8 30.6 46 -10.9 12.4
19:05 1020 30.12 849 25.07 -0.7 30.7 46 -10.8 12.5
19:10 1020 30.12 849 25.07 -0.7 30.7 46 -11 12.2
19:15 1020 30.12 849 25.07 -0.8 30.6 46 -11.1 12
19:20 1020 30.12 849 25.07 -0.8 30.5 48 -10.5 13.1
19:25 1020 30.12 849 25.07 -0.8 30.6 48 -10.5 13.1
19:30 1020 30.12 849 25.07 -0.8 30.6 52 -9.5 14.9
19:35 1020 30.12 849 25.07 -1.4 29.5 52 -9.9 14.2
19:40 1020 30.12 849 25.07 -1.2 29.9 49 -10.5 13.1
19:45 1020 30.12 849 25.07 -0.9 30.3 48 -10.7 12.7
19:50 1020 30.12 849 25.07 -0.9 30.4 47 -10.7 12.8
19:55 1020 30.12 849 25.07 -0.7 30.7 47 -10.7 12.7
20:00 1020 30.12 849 25.07 -0.6 30.9 47 -10.6 12.9
20:05 1020 30.12 849 25.07 -0.7 30.7 47 -10.6 12.9
20:10 1020 30.12 849 25.07 -0.9 30.4 49 -10.4 13.2
20:15 1020 30.12 849 25.07 -1 30.2 49 -10.3 13.4
20:20 1020 30.12 849 25.07 -1.1 30 51 -10 14
20:25 1020 30.12 849 25.07 -1.1 30 51 -10 14
20:30 1020 30.12 849 25.07 -1 30.2 51 -10 14.1
20:35 1020 30.12 849 25.07 -0.9 30.4 50 -10.1 13.9
20:40 1020 30.12 849 25.07 -0.8 30.6 49 -10.1 13.8
20:45 1020 30.12 849 25.07 -0.7 30.7 49 -10 13.9
20:50 1020 30.12 849 25.07 -0.8 30.6 51 -9.7 14.6
20:55 1020 30.12 849 25.07 -0.8 30.5 51 -9.7 14.5
21:00 1020 30.12 849 25.07 -0.8 30.6 50 -10 14.1
21:05 1020 30.12 849 25.07 -0.8 30.5 51 -9.8 14.4
21:10 1020 30.12 849 25.07 -0.9 30.5 51 -9.8 14.3
21:15 1020 30.12 849 25.07 -0.8 30.5 51 -9.6 14.7
21:20 1020 30.12 849 25.07 -0.7 30.7 49 -10.1 13.8
21:25 1020 30.12 849 25.07 -0.8 30.6 50 -10 14
21:30 1020 30.12 849 25.07 -0.8 30.6 50 -9.8 14.3
21:35 1020 30.12 849 25.07 -0.7 30.8 54 -8.9 15.9
21:40 1020 30.12 849 25.07 -1.2 29.9 54 -9.4 15
21:45 1020 30.12 849 25.07 -1.2 29.8 57 -8.7 16.4
21:50 1020 30.12 849 25.07 -1.6 29.1 57 -9 15.8
21:55 1020 30.12 849 25.07 -1.5 29.4 55 -9.5 14.9
22:00 1020 30.12 849 25.07 -1.2 29.9 53 -9.6 14.7
22:05 1020 30.12 849 25.07 -0.9 30.4 52 -9.7 14.6
22:10 1020 30.12 849 25.07 -0.7 30.7 50 -9.9 14.1
22:15 1020 30.12 849 25.07 -0.6 30.9 50 -9.8 14.4
22:20 1020 30.12 849 25.07 -0.8 30.6 51 -9.6 14.7
22:25 1020 30.12 849 25.07 -0.9 30.5 52 -9.5 14.9
22:30 1020 30.12 849 25.07 -0.8 30.5 53 -9.4 15.1
22:35 1020 30.12 849 25.07 -1 30.3 53 -9.4 15.1
22:40 1020 30.12 849 25.07 -0.9 30.3 54 -9.2 15.5
22:45 1020 30.12 849 25.07 -0.9 30.4 53 -9.2 15.4
22:50 1020 30.12 849 25.07 -0.8 30.5 53 -9.2 15.5
22:55 1020 30.12 849 25.07 -0.9 30.4 53 -9.3 15.3
23:00 1020 30.12 849 25.07 -1 30.2 54 -9.3 15.3
23:05 1020 30.12 849 25.07 -1.1 30.1 54 -9.2 15.5
23:10 1020 30.12 849 25.07 -1.1 30 54 -9.2 15.5
23:15 1020 30.12 849 25.07 -1.2 29.8 55 -9.2 15.5
23:20 1020 30.12 849 25.07 -1.3 29.6 55 -9.2 15.4
23:25 1020 30.12 849 25.07 -1.4 29.4 57 -9 15.8
23:30 1020 30.12 849 25.07 -1.6 29.2 57 -9.1 15.7
23:35 1020 30.12 849 25.07 -1.4 29.4 56 -9.1 15.7
23:40 1020 30.12 849 25.07 -1.4 29.4 57 -8.9 16
23:45 1020 30.12 849 25.07 -1.5 29.3 57 -9 15.8
23:50 1020 30.12 849 25.07 -1.6 29.2 57 -9 15.8
23:55 1020 30.12 849 25.07 -1.7 28.9 56 -9.3 15.2
24:00 1020 30.12 849 25.07 -1.8 28.8 57 -9.3 15.3